Terminal Aerodrome Forecast
Issued by NWS Brownsville, TX

Home | Current Version | Previous Version | Text Only | Print | Product List | Glossary On
Versions: 1 2 3 4 5 6 7 8 9 10 11 12 13
000
FTUS44 KBRO 161737
TAFBRO
TAF
KBRO 161737Z 1618/1718 36018G30KT P6SM -DZ OVC008
     FM170000 33017G26KT P6SM -RADZ OVC010
      TEMPO 1703/1707 -FZRADZ
     FM170700 33015G22KT P6SM OVC015 PROB30 1707/1713 -FZRADZ
     FM171300 34013G18KT P6SM OVC030=

USA.gov is the U.S. government's official web portal to all federal, state and local government web resources and services.